createdAt,value
2018-07-30T00:01:01.956Z,25.28
2018-07-30T00:03:30.112Z,25.26
2018-07-30T00:05:58.207Z,25.25
2018-07-30T00:08:26.619Z,25.19
2018-07-30T00:10:54.719Z,25.22
2018-07-30T00:13:22.853Z,25.21
2018-07-30T00:15:50.812Z,25.19
2018-07-30T00:18:18.806Z,25.22
2018-07-30T00:20:47.008Z,25.20
2018-07-30T00:23:15.102Z,25.16
2018-07-30T00:25:43.190Z,25.15
2018-07-30T00:28:11.285Z,25.25
2018-07-30T00:30:39.427Z,25.24
2018-07-30T00:33:07.487Z,25.26
2018-07-30T00:35:35.721Z,25.27
2018-07-30T00:38:03.804Z,25.21
2018-07-30T00:40:31.778Z,25.26
2018-07-30T00:42:59.828Z,25.28
2018-07-30T00:45:28.093Z,25.28
2018-07-30T00:47:56.275Z,25.26
2018-07-30T00:50:24.585Z,25.18
2018-07-30T00:52:52.743Z,25.17
2018-07-30T00:55:20.682Z,25.11
2018-07-30T00:57:48.614Z,25.07
2018-07-30T01:00:16.905Z,24.97
2018-07-30T01:02:44.923Z,24.97
2018-07-30T01:05:13.031Z,24.94
2018-07-30T01:07:41.461Z,24.89
2018-07-30T01:10:09.388Z,24.81
2018-07-30T01:12:37.290Z,24.75
2018-07-30T01:15:05.337Z,24.75
2018-07-30T01:17:33.169Z,24.72
2018-07-30T01:20:01.084Z,24.69
2018-07-30T01:22:29.151Z,24.73
2018-07-30T01:24:57.081Z,24.67
2018-07-30T01:27:25.012Z,24.62
2018-07-30T01:29:53.166Z,24.58
2018-07-30T01:32:21.193Z,24.60
2018-07-30T01:34:49.019Z,24.59
2018-07-30T01:37:17.225Z,24.54
2018-07-30T01:39:45.148Z,24.52
2018-07-30T01:42:13.171Z,24.50
2018-07-30T01:44:41.220Z,24.42
2018-07-30T01:47:09.248Z,24.38
2018-07-30T01:49:37.188Z,24.42
2018-07-30T01:52:06.027Z,24.39
2018-07-30T01:54:34.041Z,24.35
2018-07-30T01:57:02.079Z,24.29
2018-07-30T01:59:29.976Z,24.23
2018-07-30T02:01:58.041Z,24.17
2018-07-30T02:04:26.122Z,24.11
2018-07-30T02:06:54.286Z,24.08
2018-07-30T02:09:22.343Z,24.03
2018-07-30T02:11:50.364Z,23.98
2018-07-30T02:14:18.884Z,23.93
2018-07-30T02:16:46.883Z,23.88
2018-07-30T02:19:14.900Z,23.85
2018-07-30T02:21:43.279Z,23.83
2018-07-30T02:24:11.284Z,23.83
2018-07-30T02:26:39.286Z,23.81
2018-07-30T02:29:07.383Z,23.76
2018-07-30T02:31:35.269Z,23.76
2018-07-30T02:34:03.333Z,23.75
2018-07-30T02:36:31.439Z,23.75
2018-07-30T02:38:59.510Z,23.74
2018-07-30T02:41:27.518Z,23.79
2018-07-30T02:43:55.496Z,23.79
2018-07-30T02:46:23.503Z,23.81
2018-07-30T02:48:51.696Z,23.85
2018-07-30T02:51:19.960Z,23.88
2018-07-30T02:53:47.867Z,23.90
2018-07-30T02:56:15.686Z,23.90
2018-07-30T02:58:43.668Z,23.93
2018-07-30T03:02:41.047Z,23.92
2018-07-30T03:05:09.317Z,23.87
2018-07-30T03:07:37.468Z,23.91
2018-07-30T03:10:06.023Z,23.95
2018-07-30T03:12:34.152Z,23.92
2018-07-30T03:15:02.169Z,23.91
2018-07-30T03:17:30.115Z,23.86
2018-07-30T03:19:58.158Z,23.88
2018-07-30T03:22:26.107Z,23.89
2018-07-30T03:24:53.992Z,23.87
2018-07-30T03:27:21.915Z,23.87
2018-07-30T03:29:49.888Z,23.84
2018-07-30T03:32:17.996Z,23.83
2018-07-30T03:34:45.939Z,23.80
2018-07-30T03:37:13.788Z,23.81
2018-07-30T03:39:41.986Z,23.82
2018-07-30T03:42:09.976Z,23.83
2018-07-30T03:44:37.930Z,23.82
2018-07-30T03:47:06.208Z,23.85
2018-07-30T03:49:34.089Z,23.85
2018-07-30T03:52:02.178Z,23.90
2018-07-30T03:54:30.252Z,23.95
2018-07-30T03:56:58.504Z,24.00
2018-07-30T03:59:26.428Z,24.06
2018-07-30T04:01:54.365Z,24.12
2018-07-30T04:04:22.794Z,24.12
2018-07-30T04:06:50.700Z,24.16
2018-07-30T04:09:18.684Z,24.19
2018-07-30T04:11:46.883Z,24.22
2018-07-30T04:14:14.684Z,24.26
2018-07-30T04:16:47.263Z,24.30
2018-07-30T04:19:15.572Z,24.37
2018-07-30T04:21:43.511Z,24.41
2018-07-30T04:24:11.505Z,24.43
2018-07-30T04:26:39.430Z,24.46
2018-07-30T04:29:07.543Z,24.47
2018-07-30T04:31:35.689Z,24.55
2018-07-30T04:34:03.828Z,24.57
2018-07-30T04:36:31.616Z,24.60
2018-07-30T04:38:59.683Z,24.58
2018-07-30T04:41:27.724Z,24.55
2018-07-30T04:43:55.775Z,24.50
2018-07-30T04:46:24.972Z,24.46
2018-07-30T04:48:52.986Z,24.49
2018-07-30T04:51:20.918Z,24.56
2018-07-30T04:53:48.817Z,24.59
2018-07-30T04:56:16.884Z,24.65
2018-07-30T04:58:44.832Z,24.69
2018-07-30T05:01:12.859Z,24.73
2018-07-30T05:03:40.842Z,24.77
2018-07-30T05:06:08.706Z,24.83
2018-07-30T05:08:36.538Z,24.91
2018-07-30T05:11:04.522Z,24.97
2018-07-30T05:13:32.562Z,25.11
2018-07-30T05:16:00.683Z,25.26
2018-07-30T05:18:28.649Z,25.46
2018-07-30T05:20:56.467Z,25.60
2018-07-30T05:23:24.642Z,25.78
2018-07-30T05:25:52.742Z,25.91
2018-07-30T05:28:20.730Z,26.07
2018-07-30T05:30:48.677Z,26.22
2018-07-30T05:33:16.661Z,26.28
2018-07-30T05:35:44.616Z,26.42
2018-07-30T05:38:12.675Z,26.43
2018-07-30T05:40:40.671Z,26.46
2018-07-30T05:43:08.512Z,26.60
2018-07-30T05:45:36.341Z,26.57
2018-07-30T05:48:04.220Z,26.63
2018-07-30T05:50:32.033Z,26.79
2018-07-30T05:53:00.008Z,27.06
2018-07-30T05:55:27.818Z,27.13
2018-07-30T05:57:55.617Z,27.22
2018-07-30T06:00:23.534Z,27.30
2018-07-30T06:02:51.719Z,27.54
2018-07-30T06:05:19.653Z,27.60
2018-07-30T06:07:47.506Z,27.99
2018-07-30T06:10:15.297Z,28.13
2018-07-30T06:12:43.222Z,28.07
2018-07-30T06:15:11.160Z,28.07
2018-07-30T06:17:38.939Z,28.06
2018-07-30T06:20:09.015Z,28.20
2018-07-30T06:22:37.482Z,28.25
2018-07-30T06:25:05.599Z,28.37
2018-07-30T06:27:33.557Z,28.49
2018-07-30T06:30:01.400Z,28.76
2018-07-30T06:32:29.349Z,28.76
2018-07-30T06:34:57.108Z,28.84
2018-07-30T06:37:24.950Z,28.65
2018-07-30T06:39:53.199Z,28.61
2018-07-30T06:42:21.004Z,28.22
2018-07-30T06:44:48.865Z,28.21
2018-07-30T06:47:16.765Z,28.30
2018-07-30T06:49:44.639Z,28.27
2018-07-30T06:52:12.609Z,28.29
2018-07-30T06:54:40.478Z,28.37
2018-07-30T06:57:08.340Z,28.47
2018-07-30T06:59:36.258Z,28.31
2018-07-30T07:02:04.259Z,28.38
2018-07-30T07:04:32.205Z,28.69
2018-07-30T07:07:00.066Z,28.95
2018-07-30T07:09:27.952Z,28.92
2018-07-30T07:11:55.779Z,28.70
2018-07-30T07:14:23.668Z,28.75
2018-07-30T07:16:51.546Z,28.79
2018-07-30T07:19:19.466Z,28.80
2018-07-30T07:21:47.371Z,29.06
2018-07-30T07:24:15.317Z,28.95
2018-07-30T07:26:43.184Z,28.99
2018-07-30T07:29:11.091Z,28.96
2018-07-30T07:31:39.004Z,28.91
2018-07-30T07:34:06.832Z,29.05
2018-07-30T07:36:34.781Z,29.09
2018-07-30T07:39:02.740Z,29.09
2018-07-30T07:41:30.635Z,29.13
2018-07-30T07:43:58.707Z,29.22
2018-07-30T07:46:26.459Z,29.41
2018-07-30T07:48:54.324Z,29.31
2018-07-30T07:51:22.265Z,29.59
2018-07-30T07:53:50.108Z,29.84
2018-07-30T07:56:18.052Z,29.86
2018-07-30T07:58:45.977Z,30.09
2018-07-30T08:01:13.888Z,29.84
2018-07-30T08:03:41.852Z,29.60
2018-07-30T08:06:09.873Z,29.61
2018-07-30T08:08:37.617Z,29.36
2018-07-30T08:11:05.620Z,29.18
2018-07-30T08:13:34.552Z,29.25
2018-07-30T08:16:02.511Z,29.43
2018-07-30T08:18:30.540Z,29.55
2018-07-30T08:20:58.503Z,29.79
2018-07-30T08:23:26.287Z,29.72
2018-07-30T08:25:54.079Z,29.76
2018-07-30T08:28:22.644Z,29.56
2018-07-30T08:30:50.541Z,29.56
2018-07-30T08:33:18.358Z,29.71
2018-07-30T08:35:46.225Z,29.80
2018-07-30T08:38:14.250Z,29.72
2018-07-30T08:40:42.087Z,29.78
2018-07-30T08:43:10.468Z,29.69
2018-07-30T08:45:38.392Z,29.75
2018-07-30T08:48:06.177Z,29.91
2018-07-30T08:50:34.226Z,29.90
2018-07-30T08:53:02.096Z,30.13
2018-07-30T08:55:29.990Z,29.98
2018-07-30T08:57:57.870Z,29.84
2018-07-30T09:00:25.775Z,29.92
2018-07-30T09:02:53.633Z,30.07
2018-07-30T09:05:21.936Z,30.03
2018-07-30T09:07:49.884Z,30.10
2018-07-30T09:10:17.744Z,30.15
2018-07-30T09:12:45.740Z,30.30
2018-07-30T09:15:13.551Z,30.37
2018-07-30T09:17:41.410Z,30.51
2018-07-30T09:20:09.566Z,30.35
2018-07-30T09:22:37.364Z,30.44
2018-07-30T09:25:05.291Z,30.80
2018-07-30T09:27:34.979Z,30.65
2018-07-30T09:30:04.416Z,30.71
2018-07-30T09:32:32.580Z,30.85
2018-07-30T09:35:00.416Z,30.96
2018-07-30T09:37:28.289Z,31.19
2018-07-30T09:39:56.158Z,31.26
2018-07-30T09:42:24.437Z,31.35
2018-07-30T09:44:52.348Z,31.66
2018-07-30T09:47:20.347Z,32.06
2018-07-30T09:49:48.345Z,32.29
2018-07-30T09:52:16.219Z,32.59
2018-07-30T09:54:44.167Z,32.73
2018-07-30T09:57:12.175Z,33.04
2018-07-30T09:59:40.150Z,33.07
2018-07-30T10:02:08.111Z,33.13
2018-07-30T10:04:35.964Z,33.59
2018-07-30T10:07:03.868Z,33.42
2018-07-30T10:09:32.317Z,33.34
2018-07-30T10:12:00.428Z,33.69
2018-07-30T10:14:28.249Z,33.85
2018-07-30T10:16:56.057Z,34.29
2018-07-30T10:19:24.435Z,34.32
2018-07-30T10:21:53.757Z,34.15
2018-07-30T10:24:21.625Z,34.17
2018-07-30T10:26:50.006Z,34.56
2018-07-30T10:29:18.258Z,34.47
2018-07-30T10:31:46.002Z,34.58
2018-07-30T10:34:13.886Z,34.03
2018-07-30T10:36:41.760Z,33.23
2018-07-30T10:39:09.662Z,32.61
2018-07-30T10:41:37.688Z,31.90
2018-07-30T10:44:18.544Z,29.78
2018-07-30T10:46:48.322Z,29.09
2018-07-30T10:49:19.269Z,28.25
2018-07-30T10:51:55.424Z,28.13
2018-07-30T10:54:26.142Z,27.94
2018-07-30T10:56:54.258Z,27.43
2018-07-30T10:59:22.054Z,25.65
2018-07-30T11:01:49.849Z,24.17
2018-07-30T11:04:17.785Z,23.51
2018-07-30T11:06:45.611Z,23.34
2018-07-30T11:09:13.804Z,23.28
2018-07-30T11:11:47.540Z,23.23
2018-07-30T11:14:20.189Z,23.34
2018-07-30T11:16:48.481Z,23.30
2018-07-30T11:19:18.521Z,23.19
2018-07-30T11:21:46.452Z,23.27
2018-07-30T11:24:15.865Z,23.26
2018-07-30T11:26:43.837Z,23.29
2018-07-30T11:29:11.749Z,23.41
2018-07-30T11:31:40.077Z,23.64
2018-07-30T11:34:08.112Z,23.80
2018-07-30T11:36:36.263Z,23.95
2018-07-30T11:39:06.856Z,24.13
2018-07-30T11:41:34.753Z,24.27
2018-07-30T11:44:02.613Z,24.42
2018-07-30T11:46:31.949Z,24.48
2018-07-30T11:48:59.781Z,24.61
2018-07-30T11:51:27.664Z,24.74
2018-07-30T11:53:55.740Z,24.87
2018-07-30T11:56:23.551Z,24.96
2018-07-30T11:58:51.662Z,25.06
2018-07-30T12:01:19.692Z,25.18
2018-07-30T12:03:47.513Z,25.26
2018-07-30T12:06:15.443Z,25.24
2018-07-30T12:08:43.880Z,25.29
2018-07-30T12:11:12.857Z,25.33
2018-07-30T12:13:40.835Z,25.43
2018-07-30T12:16:08.875Z,25.50
2018-07-30T12:18:36.921Z,25.71
2018-07-30T12:21:04.631Z,25.88
2018-07-30T12:23:36.744Z,26.10
2018-07-30T12:26:04.739Z,26.32
2018-07-30T12:28:32.562Z,26.46
2018-07-30T12:31:00.540Z,26.49
2018-07-30T12:33:28.314Z,26.60
2018-07-30T12:35:56.383Z,26.77
2018-07-30T12:38:24.980Z,26.77
2018-07-30T12:40:52.966Z,26.89
2018-07-30T12:43:21.872Z,27.01
2018-07-30T12:45:49.861Z,26.88
2018-07-30T12:48:17.633Z,27.06
2018-07-30T12:50:45.482Z,27.23
2018-07-30T12:53:13.962Z,27.35
2018-07-30T12:55:41.812Z,27.39
2018-07-30T12:58:10.240Z,27.50
2018-07-30T13:00:38.611Z,27.46
2018-07-30T13:03:06.526Z,27.39
2018-07-30T13:05:34.503Z,27.37
2018-07-30T13:08:02.421Z,27.21
2018-07-30T13:10:30.326Z,27.10
2018-07-30T13:12:58.265Z,27.04
2018-07-30T13:15:26.134Z,26.90
2018-07-30T13:17:54.053Z,26.88
2018-07-30T13:20:21.836Z,26.86
2018-07-30T13:22:49.832Z,26.73
2018-07-30T13:25:17.664Z,26.77
2018-07-30T13:27:45.552Z,26.84
2018-07-30T13:30:13.488Z,26.69
2018-07-30T13:32:41.413Z,26.78
2018-07-30T13:35:09.414Z,26.81
2018-07-30T13:37:37.390Z,26.83
2018-07-30T13:40:05.478Z,26.80
2018-07-30T13:42:33.367Z,26.81
2018-07-30T13:45:01.467Z,26.78
2018-07-30T13:47:29.328Z,26.87
2018-07-30T13:49:57.175Z,27.04
2018-07-30T13:52:25.177Z,27.14
2018-07-30T13:54:53.229Z,27.21
2018-07-30T13:57:21.044Z,27.30
2018-07-30T13:59:48.954Z,27.37
2018-07-30T14:02:16.784Z,27.31
2018-07-30T14:04:44.696Z,27.26
2018-07-30T14:07:12.672Z,27.25
2018-07-30T14:09:40.532Z,27.17
2018-07-30T14:12:08.526Z,27.16
2018-07-30T14:14:36.524Z,27.07
2018-07-30T14:17:04.353Z,27.12
2018-07-30T14:19:32.238Z,26.97
2018-07-30T14:22:00.171Z,27.01
2018-07-30T14:24:28.072Z,27.03
2018-07-30T14:26:55.995Z,27.05
2018-07-30T14:29:24.168Z,27.10
2018-07-30T14:31:52.078Z,27.05
2018-07-30T14:34:19.911Z,27.07
2018-07-30T14:36:48.186Z,27.10
2018-07-30T14:39:16.041Z,27.12
2018-07-30T14:41:43.832Z,27.25
2018-07-30T14:44:12.748Z,27.23
2018-07-30T14:46:40.649Z,27.32
2018-07-30T14:49:08.543Z,27.27
2018-07-30T14:51:36.477Z,27.34
2018-07-30T14:54:04.504Z,27.37
2018-07-30T14:56:32.346Z,27.39
2018-07-30T14:59:00.175Z,27.37
2018-07-30T15:01:28.201Z,27.38
2018-07-30T15:03:56.003Z,27.36
2018-07-30T15:06:24.107Z,27.30
2018-07-30T15:08:51.943Z,27.16
2018-07-30T15:11:19.991Z,27.20
2018-07-30T15:13:47.989Z,27.19
2018-07-30T15:16:15.879Z,27.16
2018-07-30T15:18:43.715Z,27.08
2018-07-30T15:21:11.622Z,27.05
2018-07-30T15:23:39.530Z,26.98
2018-07-30T15:26:07.391Z,26.91
2018-07-30T15:28:35.426Z,26.85
2018-07-30T15:31:03.201Z,26.77
2018-07-30T15:33:31.076Z,26.75
2018-07-30T15:35:59.333Z,26.78
2018-07-30T15:38:27.124Z,26.83
2018-07-30T15:40:55.029Z,26.90
2018-07-30T15:43:22.954Z,26.95
2018-07-30T15:45:50.838Z,27.00
2018-07-30T15:48:19.018Z,27.03
2018-07-30T15:50:47.164Z,27.06
2018-07-30T15:53:15.437Z,27.07
2018-07-30T15:55:43.305Z,27.03
2018-07-30T15:58:11.256Z,27.02
2018-07-30T16:00:39.076Z,27.06
2018-07-30T16:03:06.844Z,27.02
2018-07-30T16:05:34.733Z,26.98
2018-07-30T16:08:02.628Z,26.83
2018-07-30T16:10:30.460Z,26.70
2018-07-30T16:12:58.239Z,26.62
2018-07-30T16:15:26.058Z,26.53
2018-07-30T16:17:53.865Z,26.42
2018-07-30T16:20:21.687Z,26.38
2018-07-30T16:22:49.515Z,26.36
2018-07-30T16:25:17.271Z,26.41
2018-07-30T16:27:45.260Z,26.49
2018-07-30T16:30:13.058Z,26.56
2018-07-30T16:32:40.880Z,26.57
2018-07-30T16:35:08.981Z,26.51
2018-07-30T16:37:36.861Z,26.45
2018-07-30T16:40:05.340Z,26.41
2018-07-30T16:42:33.487Z,26.36
2018-07-30T16:45:01.456Z,26.31
2018-07-30T16:47:29.219Z,26.24
2018-07-30T16:49:57.097Z,26.21
2018-07-30T16:52:24.899Z,26.13
2018-07-30T16:54:52.687Z,26.06
2018-07-30T16:57:21.500Z,25.99
2018-07-30T16:59:49.355Z,25.92
2018-07-30T17:02:17.231Z,25.90
2018-07-30T17:04:45.504Z,25.85
2018-07-30T17:07:13.380Z,25.81
2018-07-30T17:09:41.259Z,25.81
2018-07-30T17:12:09.240Z,25.74
2018-07-30T17:14:37.139Z,25.73
2018-07-30T17:17:05.018Z,25.66
2018-07-30T17:19:33.281Z,25.67
2018-07-30T17:22:01.203Z,25.65
2018-07-30T17:24:29.042Z,25.61
2018-07-30T17:26:56.832Z,25.57
2018-07-30T17:29:24.693Z,25.58
2018-07-30T17:31:52.452Z,25.56
2018-07-30T17:34:20.523Z,25.53
2018-07-30T17:36:48.416Z,25.43
2018-07-30T17:39:16.207Z,25.43
2018-07-30T17:41:44.492Z,25.41
2018-07-30T17:44:12.222Z,25.37
2018-07-30T17:46:40.142Z,25.24
2018-07-30T17:49:08.510Z,25.26
2018-07-30T17:51:36.398Z,25.25
2018-07-30T17:54:04.374Z,25.22
2018-07-30T17:56:32.457Z,25.18
2018-07-30T17:59:00.435Z,25.18
2018-07-30T18:01:28.318Z,25.15
2018-07-30T18:03:56.250Z,25.11
2018-07-30T18:06:24.196Z,25.12
2018-07-30T18:08:52.198Z,25.00
2018-07-30T18:11:20.172Z,24.95
2018-07-30T18:15:17.521Z,24.97
2018-07-30T18:17:45.455Z,24.94
2018-07-30T18:20:13.535Z,24.91
2018-07-30T18:22:41.595Z,24.85
2018-07-30T18:25:10.142Z,24.77
2018-07-30T18:27:38.150Z,24.87
2018-07-30T18:30:06.704Z,24.90
2018-07-30T18:32:34.648Z,24.89
2018-07-30T18:35:02.683Z,24.85
2018-07-30T18:37:30.720Z,24.79
2018-07-30T18:39:58.676Z,24.80
2018-07-30T18:42:26.559Z,24.76
2018-07-30T18:44:55.116Z,24.76
2018-07-30T18:47:23.204Z,24.71
2018-07-30T18:49:51.103Z,24.70
2018-07-30T18:52:18.883Z,24.65
2018-07-30T18:54:47.154Z,24.65
2018-07-30T19:03:59.573Z,24.49
2018-07-30T19:06:27.455Z,24.49
2018-07-30T19:08:55.376Z,24.50
2018-07-30T19:11:23.423Z,24.50
2018-07-30T19:15:20.868Z,24.57
2018-07-30T19:17:48.955Z,24.51
2018-07-30T19:20:16.912Z,24.44
2018-07-30T19:22:44.806Z,24.39
2018-07-30T19:25:13.080Z,24.32
2018-07-30T19:27:41.238Z,24.17
2018-07-30T19:30:09.271Z,24.12
2018-07-30T19:32:37.558Z,24.14
2018-07-30T19:35:05.547Z,24.01
2018-07-30T19:37:33.638Z,23.99
2018-07-30T19:40:01.749Z,23.94
2018-07-30T19:42:29.812Z,23.94
2018-07-30T19:44:57.828Z,23.95
2018-07-30T19:47:25.956Z,23.97
2018-07-30T19:49:54.068Z,23.98
2018-07-30T19:52:21.969Z,23.98
2018-07-30T19:54:49.832Z,23.89
2018-07-30T19:57:17.998Z,23.88
2018-07-30T19:59:45.938Z,23.88
2018-07-30T20:02:13.900Z,23.80
2018-07-30T20:04:41.953Z,23.80
2018-07-30T20:07:10.021Z,23.87
2018-07-30T20:09:37.834Z,23.92
2018-07-30T20:12:05.760Z,23.95
2018-07-30T20:14:33.752Z,24.03
2018-07-30T20:17:01.712Z,24.07
2018-07-30T20:19:29.900Z,24.00
2018-07-30T20:21:57.852Z,24.04
2018-07-30T20:24:25.826Z,24.08
2018-07-30T20:26:53.871Z,24.11
2018-07-30T20:29:21.857Z,24.04
2018-07-30T20:31:50.009Z,24.04
2018-07-30T20:34:17.934Z,24.05
2018-07-30T20:36:45.839Z,24.12
2018-07-30T20:39:13.923Z,24.18
2018-07-30T20:48:26.482Z,23.99
2018-07-30T20:50:54.389Z,23.97
2018-07-30T20:53:22.366Z,24.01
2018-07-30T20:55:50.709Z,24.01
2018-07-30T20:58:18.719Z,23.97
2018-07-30T21:00:46.708Z,23.90
2018-07-30T21:03:15.043Z,23.87
2018-07-30T21:05:43.844Z,23.93
2018-07-30T21:08:13.873Z,23.96
2018-07-30T21:10:43.068Z,23.89
2018-07-30T21:13:11.352Z,23.97
2018-07-30T21:15:39.159Z,24.02
2018-07-30T21:18:07.647Z,24.06
2018-07-30T21:20:35.661Z,23.98
2018-07-30T21:23:03.804Z,23.89
2018-07-30T21:25:31.866Z,23.82
2018-07-30T21:28:00.344Z,23.84
2018-07-30T21:30:34.606Z,23.85
2018-07-30T21:33:02.498Z,23.83
2018-07-30T21:35:31.482Z,23.85
2018-07-30T21:37:59.964Z,24.01
2018-07-30T21:40:33.542Z,24.12
2018-07-30T21:43:01.648Z,24.20
2018-07-30T21:45:29.707Z,24.23
2018-07-30T21:47:57.688Z,24.23
2018-07-30T21:50:27.646Z,24.10
2018-07-30T21:52:55.638Z,24.13
2018-07-30T21:55:23.635Z,24.00
2018-07-30T21:57:52.088Z,23.97
2018-07-30T22:00:22.739Z,23.90
2018-07-30T22:02:51.033Z,23.84
2018-07-30T22:05:19.363Z,23.90
2018-07-30T22:07:47.426Z,23.92
2018-07-30T22:10:15.530Z,24.01
2018-07-30T22:12:43.581Z,23.96
2018-07-30T22:15:11.575Z,23.85
2018-07-30T22:17:39.625Z,23.83
2018-07-30T22:20:07.620Z,23.87
2018-07-30T22:22:36.403Z,23.91
2018-07-30T22:25:04.434Z,23.94
2018-07-30T22:27:32.360Z,24.01
2018-07-30T22:30:00.722Z,24.06
2018-07-30T22:32:28.678Z,24.17
2018-07-30T22:34:56.817Z,24.16
2018-07-30T22:37:24.823Z,24.17
2018-07-30T22:39:52.829Z,24.10
2018-07-30T22:42:21.131Z,24.11
2018-07-30T22:44:48.903Z,24.07
2018-07-30T22:47:16.975Z,23.92
2018-07-30T22:49:45.093Z,23.84
2018-07-30T22:52:12.988Z,23.81
2018-07-30T22:54:40.868Z,23.79
2018-07-30T22:57:08.895Z,23.80
2018-07-30T22:59:36.782Z,23.81
2018-07-30T23:02:04.696Z,23.69
2018-07-30T23:04:32.831Z,23.71
2018-07-30T23:07:00.706Z,23.66
2018-07-30T23:09:28.656Z,23.69
2018-07-30T23:11:56.560Z,23.59
2018-07-30T23:14:24.578Z,23.48
2018-07-30T23:16:52.470Z,23.47
2018-07-30T23:19:20.591Z,23.41
2018-07-30T23:21:48.611Z,23.37
2018-07-30T23:24:16.648Z,23.40
2018-07-30T23:26:44.450Z,23.38
2018-07-30T23:29:12.513Z,23.45
2018-07-30T23:31:40.397Z,23.49
2018-07-30T23:34:08.438Z,23.58
2018-07-30T23:36:36.369Z,23.62
2018-07-30T23:39:07.308Z,23.64
2018-07-30T23:41:35.397Z,23.61
2018-07-30T23:44:03.359Z,23.62
2018-07-30T23:46:31.359Z,23.59
2018-07-30T23:48:59.896Z,23.55
2018-07-30T23:51:27.955Z,23.51
2018-07-30T23:53:56.069Z,23.46
2018-07-30T23:56:24.032Z,23.42
2018-07-30T23:58:52.272Z,23.39
